Time;durP1;ratioP1;P1;durP2;ratioP2;P2;SDS_P1;SDS_P2;PMS_P1;PMS_P2;Temp;Humidity;BMP_temperature;BMP_pressure;BME280_temperature;BME280_humidity;BME280_pressure;Samples;Min_cycle;Max_cycle;Signal;HPM_P1;HPM_P2
2021/07/15 00:02:42;;;;;;;24.00;11.20;;;;;;;26.88;57.71;99553.59;6222904;28;20097;-67
2021/07/15 00:05:44;;;;;;;17.23;10.98;;;;;;;26.89;58.29;99552.53;6222353;28;20053;-67
2021/07/15 00:08:45;;;;;;;;;;;;;;;26.84;57.84;99550.50;6221221;28;20038;-67
2021/07/15 00:11:48;;;;;;;18.73;11.18;;;;;;;26.76;57.71;99553.41;6222118;28;19928;-67
2021/07/15 00:14:49;;;;;;;20.15;10.40;;;;;;;26.85;57.94;99554.00;6224397;28;20048;-67
2021/07/15 00:17:51;;;;;;;21.27;10.45;;;;;;;26.71;57.63;99548.69;6232501;28;20418;-67
2021/07/15 00:20:53;;;;;;;19.75;10.52;;;;;;;26.80;57.31;99556.50;6220964;28;20488;-66
2021/07/15 00:23:54;;;;;;;12.95;10.27;;;;;;;26.79;57.72;99554.84;6221838;28;20069;-66
2021/07/15 00:26:55;;;;;;;19.17;10.77;;;;;;;26.80;57.65;99557.31;6221818;28;20041;-65
2021/07/15 00:29:56;;;;;;;17.67;10.43;;;;;;;26.79;58.22;99550.34;6221831;28;20042;-65
2021/07/15 00:32:57;;;;;;;21.45;11.25;;;;;;;26.81;56.77;99544.75;6221666;28;20112;-65
2021/07/15 00:35:58;;;;;;;21.90;10.55;;;;;;;26.81;57.18;99550.09;6221795;28;20038;-65
2021/07/15 00:38:59;;;;;;;21.85;10.38;;;;;;;26.79;57.26;99539.63;6221647;28;20095;-65
2021/07/15 00:41:59;;;;;;;22.05;10.85;;;;;;;26.74;57.41;99545.59;6204377;28;20042;-65
2021/07/15 00:45:00;;;;;;;15.15;10.95;;;;;;;26.68;57.17;99549.09;6204051;28;20511;-66
2021/07/15 00:48:01;;;;;;;20.55;10.93;;;;;;;26.73;57.56;99552.00;6222421;28;20451;-65
2021/07/15 00:51:04;;;;;;;15.15;10.55;;;;;;;26.73;57.49;99554.66;6221385;28;20050;-65
2021/07/15 00:54:04;;;;;;;24.70;10.85;;;;;;;26.72;58.08;99552.19;6204097;28;20053;-65
2021/07/15 00:57:06;;;;;;;19.92;11.25;;;;;;;26.63;58.57;99556.97;6221537;28;20477;-65
2021/07/15 01:00:09;;;;;;;22.92;10.73;;;;;;;26.58;58.27;99559.44;6221332;28;20041;-65
2021/07/15 01:03:11;;;;;;;19.45;11.27;;;;;;;26.44;58.70;99552.44;6221386;28;20048;-66
2021/07/15 01:06:12;;;;;;;28.27;10.98;;;;;;;26.51;58.61;99539.88;6221216;28;20053;-65
2021/07/15 01:09:13;;;;;;;18.83;11.00;;;;;;;26.46;58.41;99537.84;6221368;28;20046;-65
2021/07/15 01:12:28;;;;;;;18.73;10.77;;;;;;;26.38;58.63;99540.75;6221338;28;20504;-65
2021/07/15 01:16:10;;;;;;;15.77;10.90;;;;;;;26.35;58.79;99535.78;6220143;28;20749;-65
2021/07/15 01:19:37;;;;;;;12.85;10.77;;;;;;;26.36;59.28;99528.59;6192824;28;20062;-65
2021/07/15 01:23:00;;;;;;;21.10;11.80;;;;;;;26.37;59.57;99519.56;6225667;28;20469;-65
2021/07/15 01:26:27;;;;;;;15.82;11.07;;;;;;;26.38;59.25;99527.38;6225711;28;20044;-65
2021/07/15 01:29:47;;;;;;;19.38;10.75;;;;;;;26.36;59.33;99510.72;6225583;28;20042;-65
2021/07/15 01:33:15;;;;;;;19.55;11.40;;;;;;;26.26;59.14;99508.47;6225479;28;20046;-65
2021/07/15 01:36:19;;;;;;;17.25;10.65;;;;;;;26.20;59.64;99503.13;6223992;28;20558;-65
2021/07/15 01:39:26;;;;;;;20.08;11.48;;;;;;;26.10;60.27;99507.03;6225209;28;20500;-65
2021/07/15 01:42:28;;;;;;;18.85;11.15;;;;;;;26.08;61.89;99511.78;6225287;28;20054;-65
2021/07/15 01:45:30;;;;;;;15.57;11.27;;;;;;;26.08;61.69;99503.75;6228165;28;20068;-65
2021/07/15 01:48:32;;;;;;;14.30;10.90;;;;;;;25.92;63.36;99505.03;6249747;28;20480;-65
2021/07/15 01:51:35;;;;;;;17.42;11.25;;;;;;;25.80;62.79;99519.16;6248583;28;20473;-66
2021/07/15 01:54:36;;;;;;;20.60;12.23;;;;;;;25.89;63.03;99518.78;6249565;28;20536;-66
2021/07/15 01:57:38;;;;;;;;;;;;;;;25.79;62.20;99517.53;6250101;28;20041;-65
2021/07/15 02:00:40;;;;;;;;;;;;;;;25.91;61.94;99521.28;6248553;28;20027;-66
2021/07/15 02:03:43;;;;;;;;;;;;;;;25.87;62.74;99522.69;6249783;28;19968;-65
2021/07/15 02:06:49;;;;;;;20.73;10.88;;;;;;;25.87;63.39;99528.03;6243634;28;19935;-65
2021/07/15 02:09:53;;;;;;;16.23;11.52;;;;;;;25.83;62.92;99521.44;6207195;28;20096;-65
2021/07/15 02:12:55;;;;;;;26.05;11.65;;;;;;;25.67;63.11;99536.03;6224594;28;20056;-65
2021/07/15 02:15:59;;;;;;;15.40;11.75;;;;;;;25.64;64.41;99525.75;6224614;28;20559;-65
2021/07/15 02:19:01;;;;;;;18.95;11.60;;;;;;;25.64;63.48;99537.25;6224395;28;20053;-65
2021/07/15 02:22:03;;;;;;;20.70;11.63;;;;;;;25.50;64.18;99551.63;6224220;28;20041;-66
2021/07/15 02:25:06;;;;;;;27.10;12.68;;;;;;;25.52;64.07;99576.28;6223028;28;20042;-66
2021/07/15 02:28:09;;;;;;;20.20;11.02;;;;;;;25.51;64.18;99594.16;6222994;28;20386;-66
2021/07/15 02:31:15;;;;;;;18.50;11.95;;;;;;;25.48;65.78;99573.19;6222301;28;20045;-65
2021/07/15 02:34:22;;;;;;;35.88;12.70;;;;;;;25.48;64.64;99559.03;6224075;28;20481;-66
2021/07/15 02:37:27;;;;;;;21.98;12.52;;;;;;;25.31;65.81;99570.06;6222725;28;20038;-65
2021/07/15 02:40:28;;;;;;;18.85;11.85;;;;;;;25.33;66.15;99562.69;6225940;28;20053;-65
2021/07/15 02:43:29;;;;;;;23.63;11.70;;;;;;;25.37;65.53;99565.78;6223886;28;20052;-66
2021/07/15 02:46:30;;;;;;;21.55;11.82;;;;;;;25.24;66.58;99557.72;6222646;28;20475;-66
2021/07/15 02:49:31;;;;;;;19.90;11.90;;;;;;;25.19;67.58;99550.28;6222590;28;20057;-65
2021/07/15 02:52:32;;;;;;;25.00;11.77;;;;;;;25.21;66.69;99558.13;6223740;28;20099;-65
2021/07/15 02:55:33;;;;;;;20.38;11.13;;;;;;;25.20;66.88;99554.59;6223595;28;20038;-65
2021/07/15 02:58:44;;;;;;;20.42;10.32;;;;;;;25.23;66.54;99551.56;6222376;28;20041;-65
2021/07/15 03:01:56;;;;;;;;;;;;;;;25.20;67.09;99545.78;6223757;28;20076;-65
2021/07/15 03:05:19;;;;;;;19.13;9.73;;;;;;;25.17;66.47;99544.34;6222297;28;19976;-65
2021/07/15 03:08:25;;;;;;;16.98;9.95;;;;;;;25.13;65.67;99546.56;6222099;28;20456;-65
2021/07/15 03:11:38;;;;;;;23.02;9.43;;;;;;;25.17;66.23;99551.53;6223159;28;20072;-66
2021/07/15 03:14:43;;;;;;;17.55;8.68;;;;;;;25.16;65.89;99552.53;6223086;28;20045;-65
2021/07/15 03:17:48;;;;;;;18.27;9.52;;;;;;;25.08;65.54;99562.38;6238242;28;20050;-66
2021/07/15 03:20:50;;;;;;;19.38;9.27;;;;;;;25.13;64.89;99565.25;6222906;28;20038;-65
2021/07/15 03:23:54;;;;;;;20.17;8.90;;;;;;;25.03;65.49;99564.81;6222885;28;20408;-66
2021/07/15 03:26:57;;;;;;;14.68;9.13;;;;;;;25.02;65.60;99557.84;6222873;28;20060;-65
2021/07/15 03:30:00;;;;;;;26.27;8.25;;;;;;;25.02;66.13;99570.34;6221556;28;20095;-65
2021/07/15 03:33:02;;;;;;;20.35;8.05;;;;;;;25.04;65.34;99585.16;6221679;28;20048;-65
2021/07/15 03:36:04;;;;;;;16.73;7.50;;;;;;;25.08;65.42;99586.41;6222678;28;20049;-65
2021/07/15 03:39:06;;;;;;;21.75;8.52;;;;;;;25.02;65.48;99584.53;6222581;28;20049;-65
2021/07/15 03:42:07;;;;;;;20.45;6.85;;;;;;;25.14;66.18;99563.41;6204577;28;20531;-65
2021/07/15 03:45:14;;;;;;;22.25;8.50;;;;;;;25.14;66.63;99558.06;6221955;28;20038;-64
2021/07/15 03:48:16;;;;;;;16.55;7.57;;;;;;;25.25;66.71;99568.22;6222856;28;20046;-65
2021/07/15 03:51:17;;;;;;;16.35;7.85;;;;;;;25.24;67.65;99584.41;6222154;28;20045;-65
2021/07/15 03:54:20;;;;;;;18.73;7.78;;;;;;;25.29;67.47;99595.34;6222335;28;20088;-65
2021/07/15 03:57:25;;;;;;;17.55;8.07;;;;;;;25.29;67.45;99601.50;6221240;28;20058;-66
2021/07/15 04:00:26;;;;;;;13.93;7.97;;;;;;;25.32;67.64;99602.94;6221002;28;20029;-65
2021/07/15 04:03:30;;;;;;;21.58;8.43;;;;;;;25.31;68.17;99598.63;6211760;28;20176;-65
2021/07/15 04:06:33;;;;;;;15.20;8.30;;;;;;;25.29;68.22;99595.34;6246618;28;20046;-64
2021/07/15 04:09:36;;;;;;;14.90;7.45;;;;;;;25.26;69.10;99601.88;6245391;28;20068;-65
2021/07/15 04:12:40;;;;;;;16.15;7.75;;;;;;;25.12;71.59;99595.66;6242817;28;20060;-64
2021/07/15 04:15:53;;;;;;;21.60;6.72;;;;;;;25.04;71.38;99603.00;6241135;28;20048;-65
2021/07/15 04:18:57;;;;;;;15.85;7.30;;;;;;;25.08;72.60;99601.56;6239514;28;20449;-65
2021/07/15 04:21:58;;;;;;;17.98;8.00;;;;;;;25.10;74.01;99587.03;6221726;28;20045;-66
2021/07/15 04:25:00;;;;;;;14.25;7.43;;;;;;;24.96;74.49;99595.16;6221963;28;20491;-66
2021/07/15 04:28:03;;;;;;;22.67;8.30;;;;;;;24.95;77.19;99610.34;6221795;28;20042;-65
2021/07/15 04:31:17;;;;;;;14.80;7.10;;;;;;;24.85;79.92;99620.56;6245198;28;20041;-66
2021/07/15 04:34:18;;;;;;;16.23;7.57;;;;;;;24.77;80.01;99612.72;6246148;28;20042;-65
2021/07/15 04:37:20;;;;;;;;;;;;;;;24.76;79.66;99622.56;6246934;28;20447;-65
2021/07/15 04:40:23;;;;;;;15.18;7.55;;;;;;;24.75;77.69;99620.94;6246168;28;20498;-65
2021/07/15 04:43:24;;;;;;;20.83;7.82;;;;;;;24.83;77.80;99626.13;6246138;28;20516;-65
2021/07/15 04:46:26;;;;;;;15.27;6.85;;;;;;;24.86;77.68;99600.88;6228557;28;20095;-64
2021/07/15 04:49:29;;;;;;;12.65;7.90;;;;;;;24.78;79.02;99596.50;6244837;28;20049;-65
2021/07/15 04:52:34;;;;;;;13.32;7.85;;;;;;;24.77;78.41;99600.22;6245769;28;20139;-65
2021/07/15 04:55:37;;;;;;;16.13;8.27;;;;;;;24.85;78.38;99610.72;6249153;28;20056;-65
2021/07/15 04:58:40;;;;;;;19.75;8.05;;;;;;;24.83;78.66;99606.59;6250783;28;20038;-64
2021/07/15 05:01:41;;;;;;;12.90;7.55;;;;;;;24.77;78.41;99626.06;6249418;28;20041;-63
2021/07/15 05:04:42;;;;;;;11.50;7.28;;;;;;;24.81;79.45;99640.66;6250772;28;20055;-64
2021/07/15 05:07:43;;;;;;;12.98;7.55;;;;;;;24.91;79.45;99627.78;6250450;28;20049;-63
2021/07/15 05:10:44;;;;;;;16.97;7.20;;;;;;;24.94;76.33;99640.72;6246990;28;20038;-63
2021/07/15 05:13:45;;;;;;;14.88;6.57;;;;;;;24.88;74.89;99653.00;6226387;28;20278;-63
2021/07/15 05:16:46;;;;;;;12.50;6.80;;;;;;;24.92;74.67;99656.94;6225954;28;20484;-64
2021/07/15 05:19:47;;;;;;;19.52;7.15;;;;;;;25.04;75.10;99651.88;6225943;28;20048;-64
2021/07/15 05:22:47;;;;;;;15.07;7.18;;;;;;;25.00;75.16;99641.78;6225690;28;20049;-64
2021/07/15 05:25:50;;;;;;;20.37;7.67;;;;;;;25.03;73.82;99628.88;6225767;28;20108;-65
2021/07/15 05:28:51;;;;;;;12.35;6.47;;;;;;;25.05;74.41;99640.16;6208286;28;20132;-65
2021/07/15 05:31:52;;;;;;;14.52;6.72;;;;;;;25.04;75.49;99641.19;6224354;28;20042;-65
2021/07/15 05:34:53;;;;;;;27.48;7.32;;;;;;;25.08;74.73;99631.78;6224317;28;20057;-65
2021/07/15 05:37:54;;;;;;;16.25;7.00;;;;;;;24.99;73.51;99637.47;6225409;28;20052;-64
2021/07/15 05:40:55;;;;;;;19.50;7.20;;;;;;;25.13;73.20;99645.34;6223985;28;20046;-64
2021/07/15 05:43:55;;;;;;;16.80;6.88;;;;;;;25.07;73.97;99638.13;6236348;28;20061;-65
2021/07/15 05:46:56;;;;;;;19.88;6.88;;;;;;;25.08;74.84;99634.44;6246418;28;20042;-66
2021/07/15 05:49:57;;;;;;;16.70;6.17;;;;;;;25.06;75.14;99636.50;6227539;28;20045;-65
2021/07/15 05:52:58;;;;;;;15.88;6.65;;;;;;;25.09;75.63;99635.25;6234835;28;20057;-65
2021/07/15 05:55:59;;;;;;;20.97;7.23;;;;;;;25.07;75.69;99637.31;6217597;28;20049;-64
2021/07/15 05:58:59;;;;;;;14.73;6.40;;;;;;;25.19;75.93;99638.38;6239684;28;20045;-65
2021/07/15 06:02:01;;;;;;;20.90;7.20;;;;;;;25.09;74.67;99638.75;6231316;28;20053;-66
2021/07/15 06:05:02;;;;;;;11.65;6.38;;;;;;;25.21;74.32;99651.56;6245171;28;20282;-65
2021/07/15 06:08:03;;;;;;;;;;;;;;;25.30;74.99;99650.38;6248895;28;20060;-65
2021/07/15 06:11:04;;;;;;;15.33;6.73;;;;;;;25.33;74.49;99655.31;6232420;28;19921;-66
2021/07/15 06:14:05;;;;;;;15.93;7.15;;;;;;;25.53;74.33;99650.03;6236095;28;20087;-67
2021/07/15 06:17:06;;;;;;;16.70;7.00;;;;;;;25.59;73.99;99648.41;6224105;28;20096;-67
2021/07/15 06:20:07;;;;;;;16.23;7.22;;;;;;;25.77;74.49;99658.53;6224593;28;20042;-69
2021/07/15 06:23:09;;;;;;;15.32;7.32;;;;;;;25.85;71.42;99636.97;6224454;28;20046;-66
2021/07/15 06:26:10;;;;;;;19.00;7.15;;;;;;;25.87;71.27;99645.59;6225408;28;20038;-67
2021/07/15 06:29:11;;;;;;;21.70;7.15;;;;;;;26.00;72.90;99644.81;6245370;28;20503;-66
2021/07/15 06:32:12;;;;;;;18.42;7.15;;;;;;;26.08;72.00;99648.13;6246960;28;20064;-66
2021/07/15 06:35:15;;;;;;;19.95;6.63;;;;;;;26.21;74.24;99652.66;6224892;28;20050;-65
2021/07/15 06:38:16;;;;;;;19.38;6.63;;;;;;;26.25;72.01;99648.56;6240994;28;20053;-67
2021/07/15 06:41:17;;;;;;;22.98;7.03;;;;;;;26.33;71.69;99658.19;6249428;28;20049;-66
2021/07/15 06:44:18;;;;;;;16.33;7.22;;;;;;;26.19;71.48;99661.91;6225394;28;20053;-66
2021/07/15 06:47:19;;;;;;;17.30;6.40;;;;;;;26.03;75.18;99658.59;6232352;28;20069;-67
2021/07/15 06:50:20;;;;;;;15.45;7.13;;;;;;;25.94;72.76;99683.88;6231302;28;20488;-67
2021/07/15 06:53:21;;;;;;;24.08;8.77;;;;;;;25.77;82.21;99685.25;6224794;28;20064;-66
2021/07/15 06:56:22;;;;;;;11.18;7.50;;;;;;;25.80;83.92;99677.66;6224626;28;20457;-67
2021/07/15 06:59:22;;;;;;;16.23;8.45;;;;;;;25.83;86.49;99668.41;6207245;28;20046;-68
2021/07/15 07:02:24;;;;;;;21.55;7.70;;;;;;;25.92;84.23;99667.22;6224476;28;20046;-67
2021/07/15 07:05:25;;;;;;;18.17;7.70;;;;;;;26.06;83.26;99663.53;6224169;28;20042;-67
2021/07/15 07:08:26;;;;;;;20.90;7.45;;;;;;;26.15;83.33;99664.19;6222836;28;20527;-66
2021/07/15 07:11:26;;;;;;;19.05;8.23;;;;;;;26.28;86.19;99669.53;6246831;28;20052;-67
2021/07/15 07:14:27;;;;;;;16.20;7.57;;;;;;;26.20;86.77;99663.56;6247656;28;20041;-67
2021/07/15 07:17:28;;;;;;;15.55;7.72;;;;;;;26.24;86.38;99659.44;6248294;28;20033;-66
2021/07/15 07:20:29;;;;;;;17.58;7.97;;;;;;;26.25;83.17;99666.44;6248529;28;20377;-66
2021/07/15 07:23:30;;;;;;;17.60;8.60;;;;;;;26.18;88.60;99674.44;6247765;28;20551;-66
2021/07/15 07:26:31;;;;;;;18.17;7.65;;;;;;;26.17;85.52;99682.66;6230934;28;20054;-68
2021/07/15 07:29:31;;;;;;;16.17;8.05;;;;;;;26.21;88.14;99678.56;6247506;28;20045;-67
2021/07/15 07:32:32;;;;;;;14.90;7.78;;;;;;;26.27;86.16;99681.22;6246704;28;20053;-67
2021/07/15 07:35:33;;;;;;;17.27;7.82;;;;;;;26.27;82.80;99680.41;6246605;28;20072;-66
2021/07/15 07:38:34;;;;;;;16.17;8.00;;;;;;;26.26;81.09;99684.94;6247931;28;20484;-67
2021/07/15 07:41:35;;;;;;;16.67;7.97;;;;;;;26.33;81.03;99680.41;6246652;28;20045;-66
2021/07/15 07:44:37;;;;;;;16.60;8.13;;;;;;;26.41;83.62;99676.72;6247635;28;20159;-67
2021/07/15 07:47:38;;;;;;;18.05;9.73;;;;;;;26.40;84.89;99680.44;6247831;28;20086;-67
2021/07/15 07:50:39;;;;;;;18.77;9.82;;;;;;;26.50;82.79;99688.03;6247784;28;20042;-66
2021/07/15 07:53:40;;;;;;;14.82;10.27;;;;;;;26.47;84.35;99683.09;6230070;28;20431;-66
2021/07/15 07:56:41;;;;;;;19.58;10.68;;;;;;;26.55;85.22;99685.56;6247614;28;20057;-66
2021/07/15 07:59:42;;;;;;;21.80;10.48;;;;;;;26.57;85.67;99680.88;6247524;28;20476;-67
2021/07/15 08:02:44;;;;;;;15.70;10.70;;;;;;;26.62;84.48;99681.06;6246147;28;20052;-67
2021/07/15 08:05:46;;;;;;;20.98;10.68;;;;;;;26.63;83.44;99679.22;6247306;28;20062;-66
2021/07/15 08:08:47;;;;;;;14.60;9.93;;;;;;;26.73;81.92;99688.47;6229940;28;20503;-67
2021/07/15 08:11:50;;;;;;;22.23;10.02;;;;;;;26.77;81.85;99683.53;6246272;28;20054;-67
2021/07/15 08:14:51;;;;;;;22.38;10.60;;;;;;;26.82;80.91;99685.56;6246014;28;20440;-67
2021/07/15 08:17:52;;;;;;;15.52;10.38;;;;;;;26.92;83.18;99685.97;6229431;28;20049;-66
2021/07/15 08:20:53;;;;;;;20.48;9.27;;;;;;;27.02;79.03;99690.88;6246861;28;20115;-66
2021/07/15 08:23:54;;;;;;;25.92;10.38;;;;;;;27.11;76.79;99686.94;6245343;28;20061;-66
2021/07/15 08:26:55;;;;;;;15.32;9.98;;;;;;;27.19;77.27;99688.56;6246882;28;20048;-67
2021/07/15 08:29:56;;;;;;;22.15;9.38;;;;;;;27.32;75.15;99691.22;6250673;28;20048;-65
2021/07/15 08:32:59;;;;;;;14.07;9.38;;;;;;;27.38;74.07;99689.56;6255536;28;20045;-67
2021/07/15 08:36:00;;;;;;;15.32;9.18;;;;;;;27.49;76.76;99688.91;6254290;28;20152;-67
2021/07/15 08:39:01;;;;;;;18.05;8.38;;;;;;;27.51;74.32;99684.16;6254157;28;20103;-67
2021/07/15 08:42:02;;;;;;;20.08;9.40;;;;;;;27.59;74.04;99683.06;6253618;28;20045;-67
2021/07/15 08:45:06;;;;;;;;;;;;;;;27.49;74.24;99680.88;6254832;28;20041;-67
2021/07/15 08:48:10;;;;;;;17.55;8.35;;;;;;;27.53;65.67;99679.41;6255187;28;19927;-68
2021/07/15 08:51:12;;;;;;;13.57;7.70;;;;;;;27.63;61.48;99684.28;6253963;28;20045;-68
2021/07/15 08:54:16;;;;;;;17.02;7.72;;;;;;;27.76;64.72;99678.88;6221561;28;20045;-67
2021/07/15 08:57:17;;;;;;;16.98;8.23;;;;;;;27.96;64.03;99678.75;6255169;28;20050;-68
2021/07/15 09:00:18;;;;;;;17.63;8.20;;;;;;;28.03;61.17;99684.09;6254538;28;20046;-67
2021/07/15 09:03:19;;;;;;;15.88;7.57;;;;;;;28.14;61.78;99683.38;6236419;28;20398;-68
2021/07/15 09:06:20;;;;;;;18.40;7.10;;;;;;;28.14;59.01;99678.81;6239732;28;20061;-68
2021/07/15 09:09:22;;;;;;;17.50;7.25;;;;;;;28.23;56.06;99684.78;6252730;28;20060;-68
2021/07/15 09:12:22;;;;;;;20.25;7.20;;;;;;;28.23;57.40;99681.25;6251785;28;20053;-68
2021/07/15 09:15:24;;;;;;;17.98;7.78;;;;;;;28.10;60.54;99679.50;6245267;28;20048;-68
2021/07/15 09:18:25;;;;;;;15.07;8.15;;;;;;;28.28;62.79;99670.69;6254899;28;20049;-67
2021/07/15 09:21:33;;;;;;;15.65;7.85;;;;;;;28.17;60.74;99676.75;6223046;28;20053;-67
2021/07/15 09:24:37;;;;;;;20.25;7.85;;;;;;;28.10;59.58;99682.16;6236279;28;20042;-67
2021/07/15 09:27:48;;;;;;;16.90;7.95;;;;;;;28.00;60.45;99677.28;6230453;28;20041;-67
2021/07/15 09:30:49;;;;;;;16.13;8.32;;;;;;;27.92;62.09;99681.06;6245504;28;20050;-67
2021/07/15 09:33:50;;;;;;;19.95;8.10;;;;;;;27.83;61.36;99686.84;6230363;28;20085;-67
2021/07/15 09:36:52;;;;;;;;;;;;;;;27.80;62.60;99684.59;6230724;28;20050;-67
2021/07/15 09:39:53;;;;;;;21.30;8.23;;;;;;;27.81;62.49;99681.72;6229947;28;19929;-67
2021/07/15 09:43:30;;;;;;;17.85;7.95;;;;;;;27.74;61.96;99678.25;6226335;28;20054;-68
2021/07/15 09:46:36;;;;;;;16.63;8.10;;;;;;;27.66;65.58;99673.16;6226002;28;20066;-68
2021/07/15 09:49:37;;;;;;;16.65;8.32;;;;;;;27.73;62.06;99682.78;6208624;28;20058;-67
2021/07/15 09:52:38;;;;;;;23.42;8.13;;;;;;;28.00;62.37;99688.00;6224981;28;20054;-68
2021/07/15 09:55:38;;;;;;;18.85;7.93;;;;;;;28.26;63.21;99692.38;6208611;28;20042;-68
2021/07/15 09:58:46;;;;;;;19.63;8.18;;;;;;;28.51;60.71;99684.34;6224809;28;20063;-68
2021/07/15 10:01:52;;;;;;;17.58;7.90;;;;;;;28.82;63.38;99677.25;6240956;28;20038;-69
2021/07/15 10:04:56;;;;;;;18.38;7.88;;;;;;;28.97;58.70;99684.94;6240599;28;20076;-68
2021/07/15 10:08:03;;;;;;;17.15;7.55;;;;;;;29.00;58.95;99675.63;6225434;28;20058;-67
2021/07/15 10:11:26;;;;;;;20.05;8.27;;;;;;;29.16;57.99;99682.28;6225711;28;20539;-67
2021/07/15 10:14:34;;;;;;;17.15;7.50;;;;;;;29.23;59.48;99689.22;6224188;28;20103;-67
2021/07/15 10:17:39;;;;;;;11.88;7.53;;;;;;;29.21;59.51;99685.13;6224443;28;20129;-67
2021/07/15 10:20:55;;;;;;;17.27;8.10;;;;;;;29.38;56.34;99683.44;6225170;28;20049;-67
2021/07/15 10:23:57;;;;;;;19.25;7.43;;;;;;;29.61;57.86;99680.06;6237423;28;20503;-68
2021/07/15 10:27:00;;;;;;;14.38;7.00;;;;;;;29.33;58.14;99673.38;6249182;28;20046;-68
2021/07/15 10:30:02;;;;;;;21.15;7.82;;;;;;;29.25;56.88;99681.75;6248626;28;20124;-69
2021/07/15 10:33:03;;;;;;;19.98;7.30;;;;;;;29.23;58.98;99685.72;6249239;28;20393;-68
2021/07/15 10:36:06;;;;;;;20.15;7.07;;;;;;;29.04;56.45;99683.00;6249542;28;20042;-68
2021/07/15 10:39:11;;;;;;;19.05;7.72;;;;;;;29.09;56.20;99685.81;6249790;28;20052;-67
2021/07/15 10:42:12;;;;;;;15.82;7.40;;;;;;;29.34;57.55;99687.63;6249746;28;20041;-67
2021/07/15 10:45:13;;;;;;;15.27;6.85;;;;;;;29.38;55.68;99691.50;6249375;28;20045;-68
2021/07/15 10:48:15;;;;;;;17.92;7.15;;;;;;;29.34;53.45;99690.31;6248427;28;20046;-69
2021/07/15 10:51:16;;;;;;;16.23;7.25;;;;;;;29.59;55.72;99690.25;6248170;28;20103;-70
2021/07/15 10:54:18;;;;;;;14.45;7.43;;;;;;;29.95;54.06;99688.50;6247622;28;20037;-68
2021/07/15 10:57:23;;;;;;;21.27;7.35;;;;;;;30.02;52.47;99674.97;6249271;28;20365;-70
2021/07/15 11:00:25;;;;;;;12.48;7.10;;;;;;;30.10;52.72;99686.22;6249128;28;20065;-68
2021/07/15 11:03:27;;;;;;;23.17;7.25;;;;;;;30.25;51.21;99688.47;6246943;28;20053;-67
2021/07/15 11:07:01;;;;;;;12.77;6.75;;;;;;;30.38;51.01;99684.78;6248079;28;20045;-69
2021/07/15 11:10:22;;;;;;;17.90;7.10;;;;;;;30.27;52.72;99685.53;6244304;28;20084;-70
2021/07/15 11:13:27;;;;;;;9.73;6.50;;;;;;;30.14;55.40;99686.56;6238799;28;20132;-70
2021/07/15 11:16:52;;;;;;;19.08;7.47;;;;;;;30.25;54.13;99684.94;6245824;28;20453;-70
2021/07/15 11:20:04;;;;;;;14.75;7.28;;;;;;;30.21;53.17;99684.59;6224027;28;20041;-70
2021/07/15 11:23:07;;;;;;;12.82;6.93;;;;;;;30.33;53.52;99677.41;6248543;28;20045;-70
2021/07/15 11:26:28;;;;;;;13.50;6.40;;;;;;;30.39;48.09;99670.25;6248406;28;20041;-72
2021/07/15 11:29:48;;;;;;;21.60;7.10;;;;;;;30.04;50.00;99675.53;6230763;28;20048;-70
2021/07/15 11:32:49;;;;;;;14.65;6.40;;;;;;;29.98;51.06;99671.09;6247151;28;20404;-71
2021/07/15 11:36:08;;;;;;;16.02;6.97;;;;;;;29.98;49.49;99671.94;6247839;28;20053;-70
2021/07/15 11:39:09;;;;;;;17.02;7.13;;;;;;;30.05;51.78;99667.25;6248204;28;20535;-67
2021/07/15 11:42:26;;;;;;;15.73;7.05;;;;;;;30.09;51.81;99665.75;6246652;28;20120;-68
2021/07/15 11:45:27;;;;;;;18.25;6.93;;;;;;;30.25;50.58;99663.41;6246395;28;20111;-67
2021/07/15 11:48:53;;;;;;;19.70;6.97;;;;;;;30.01;53.26;99666.06;6248019;28;20041;-68
2021/07/15 11:51:58;;;;;;;15.00;7.25;;;;;;;29.79;54.94;99659.59;6246280;28;20049;-67
2021/07/15 11:55:11;;;;;;;14.32;7.25;;;;;;;29.65;51.41;99653.53;6246561;28;20045;-66
2021/07/15 11:58:39;;;;;;;16.05;7.00;;;;;;;29.52;55.28;99655.38;6246720;28;20145;-68
2021/07/15 12:01:40;;;;;;;16.95;7.45;;;;;;;29.41;54.10;99655.34;6247602;28;20046;-69
2021/07/15 12:05:12;;;;;;;19.77;7.70;;;;;;;29.53;51.79;99654.31;6229170;28;20530;-69
2021/07/15 12:08:15;;;;;;;18.40;7.68;;;;;;;29.40;52.19;99656.38;6247343;28;20053;-69
2021/07/15 12:11:22;;;;;;;15.23;7.15;;;;;;;29.20;53.23;99653.91;6247457;28;20046;-68
2021/07/15 12:14:23;;;;;;;15.05;7.85;;;;;;;29.21;56.89;99655.56;6229731;28;20041;-67
2021/07/15 12:17:29;;;;;;;17.20;7.88;;;;;;;29.10;54.79;99646.38;6236578;28;20065;-69
2021/07/15 12:20:41;;;;;;;15.68;7.20;;;;;;;29.10;52.09;99643.69;6229935;28;20133;-68
2021/07/15 12:23:44;;;;;;;15.75;7.28;;;;;;;29.10;50.83;99643.69;6240158;28;20057;-69
2021/07/15 12:26:45;;;;;;;17.42;8.02;;;;;;;29.11;50.49;99643.47;6246137;28;20045;-68
2021/07/15 12:30:13;;;;;;;17.77;7.57;;;;;;;28.90;55.07;99631.31;6240413;28;20049;-68
2021/07/15 12:33:16;;;;;;;19.17;7.45;;;;;;;28.84;58.85;99634.06;6245614;28;20056;-67
2021/07/15 12:36:18;;;;;;;19.17;8.20;;;;;;;28.75;57.73;99628.19;6231119;28;20050;-68
2021/07/15 12:39:19;;;;;;;17.27;7.63;;;;;;;28.68;55.90;99628.25;6227921;28;20052;-66
2021/07/15 12:42:22;;;;;;;;;;;;;;;28.66;59.14;99624.97;6220878;28;20046;-66
2021/07/15 12:45:23;;;;;;;18.33;7.35;;;;;;;28.99;53.98;99628.31;6222347;28;19968;-66
2021/07/15 12:48:24;;;;;;;;;;;;;;;29.37;57.70;99619.22;6222665;28;20054;-67
2021/07/15 12:51:49;;;;;;;18.67;8.23;;;;;;;29.20;56.43;99619.00;6228511;28;19988;-67
2021/07/15 12:54:52;;;;;;;19.80;7.68;;;;;;;29.05;55.70;99614.81;6238991;28;20275;-66
2021/07/15 12:57:54;;;;;;;17.27;7.85;;;;;;;28.80;56.21;99617.59;6229492;28;20050;-67
2021/07/15 13:01:04;;;;;;;21.15;8.95;;;;;;;28.66;57.34;99611.56;6204978;28;20100;-66
2021/07/15 13:04:17;;;;;;;19.38;8.23;;;;;;;28.43;62.33;99603.28;6237786;28;20042;-69
2021/07/15 13:07:22;;;;;;;23.52;8.27;;;;;;;28.31;63.30;99608.53;6246579;28;20492;-69
2021/07/15 13:10:39;;;;;;;16.17;8.18;;;;;;;28.16;63.29;99600.03;6229678;28;20045;-70
2021/07/15 13:17:00;;;;;;;13.40;7.93;;;;;;;28.00;62.86;99591.47;6249730;28;20451;-68
2021/07/15 13:20:21;;;;;;;18.35;8.73;;;;;;;27.93;63.87;99590.72;6251126;28;20081;-71
2021/07/15 13:23:22;;;;;;;15.85;8.82;;;;;;;27.88;67.11;99601.28;6251088;28;20041;-71
2021/07/15 13:26:24;;;;;;;25.63;7.90;;;;;;;27.87;64.18;99591.59;6233310;28;20077;-71
2021/07/15 13:29:36;;;;;;;15.57;8.18;;;;;;;27.87;65.05;99586.25;6249819;28;20045;-71
2021/07/15 13:32:37;;;;;;;19.05;9.35;;;;;;;27.82;67.34;99573.47;6249562;28;20436;-70
2021/07/15 13:35:38;;;;;;;;;;;;;;;27.85;66.74;99564.16;6217647;28;20054;-71
2021/07/15 13:38:47;;;;;;;18.27;8.60;;;;;;;27.94;66.32;99552.13;6249828;28;19971;-69
2021/07/15 13:41:48;;;;;;;29.42;9.18;;;;;;;28.14;62.75;99538.56;6250623;28;20042;-70
2021/07/15 13:45:00;;;;;;;17.20;8.63;;;;;;;28.31;60.94;99536.13;6249566;28;20038;-70
2021/07/15 13:48:30;;;;;;;17.65;8.70;;;;;;;28.43;61.21;99523.59;6250732;28;20167;-70
2021/07/15 13:51:32;;;;;;;16.17;8.18;;;;;;;28.54;59.47;99516.72;6244790;28;20431;-70
2021/07/15 13:54:33;;;;;;;20.75;9.18;;;;;;;28.41;60.79;99522.19;6249455;28;20068;-70
2021/07/15 13:57:40;;;;;;;17.27;8.93;;;;;;;28.26;60.29;99544.84;6232880;28;20041;-70
2021/07/15 14:00:51;;;;;;;18.00;9.18;;;;;;;28.09;63.34;99566.06;6250505;28;20485;-68
2021/07/15 14:03:53;;;;;;;20.97;9.10;;;;;;;27.98;63.40;99549.84;6249567;28;20052;-68
2021/07/15 14:06:57;;;;;;;24.13;9.07;;;;;;;27.90;64.59;99551.78;6248867;28;20777;-69
2021/07/15 14:10:24;;;;;;;16.17;8.60;;;;;;;27.78;67.97;99539.25;6250668;28;20049;-68
2021/07/15 14:13:26;;;;;;;17.10;9.10;;;;;;;27.69;68.52;99533.34;6249755;28;20107;-68
2021/07/15 14:16:29;;;;;;;16.55;8.43;;;;;;;27.63;69.44;99527.00;6250868;28;20070;-68
2021/07/15 14:19:30;;;;;;;23.60;9.73;;;;;;;27.58;70.80;99526.03;6248788;28;20091;-69
2021/07/15 14:22:31;;;;;;;19.35;8.80;;;;;;;27.54;71.24;99541.72;6249084;28;20427;-70
2021/07/15 14:25:32;;;;;;;19.83;8.85;;;;;;;27.52;70.96;99538.44;6250874;28;20072;-72